sensor_id;sensor_type;location;lat;lon;timestamp;temperature;humidity
816;DHT22;25928;51.062;13.752;2023-05-21T00:01:33;15.80;1.00
816;DHT22;25928;51.062;13.752;2023-05-21T00:04:00;15.70;1.00
816;DHT22;25928;51.062;13.752;2023-05-21T00:06:27;15.60;1.00
816;DHT22;25928;51.062;13.752;2023-05-21T00:08:53;15.70;1.00
816;DHT22;25928;51.062;13.752;2023-05-21T00:11:19;15.70;1.00
816;DHT22;25928;51.062;13.752;2023-05-21T00:13:44;15.70;1.00
816;DHT22;25928;51.062;13.752;2023-05-21T00:16:10;15.70;1.00
816;DHT22;25928;51.062;13.752;2023-05-21T00:18:36;15.60;1.00
816;DHT22;25928;51.062;13.752;2023-05-21T00:21:04;15.60;1.00
816;DHT22;25928;51.062;13.752;2023-05-21T00:23:29;15.60;1.00
816;DHT22;25928;51.062;13.752;2023-05-21T00:25:57;15.60;1.00
816;DHT22;25928;51.062;13.752;2023-05-21T00:28:24;15.60;1.00
816;DHT22;25928;51.062;13.752;2023-05-21T00:30:49;15.60;1.00
816;DHT22;25928;51.062;13.752;2023-05-21T00:33:15;15.60;1.00
816;DHT22;25928;51.062;13.752;2023-05-21T00:35:41;15.60;1.00
816;DHT22;25928;51.062;13.752;2023-05-21T00:38:06;15.50;1.00
816;DHT22;25928;51.062;13.752;2023-05-21T00:40:36;15.50;1.00
816;DHT22;25928;51.062;13.752;2023-05-21T00:43:05;15.50;1.00
816;DHT22;25928;51.062;13.752;2023-05-21T00:45:32;15.50;1.00
816;DHT22;25928;51.062;13.752;2023-05-21T00:48:01;15.50;1.00
816;DHT22;25928;51.062;13.752;2023-05-21T00:50:28;15.40;1.00
816;DHT22;25928;51.062;13.752;2023-05-21T00:52:55;15.40;1.00
816;DHT22;25928;51.062;13.752;2023-05-21T00:55:21;15.40;1.00
816;DHT22;25928;51.062;13.752;2023-05-21T00:57:46;15.40;1.00
816;DHT22;25928;51.062;13.752;2023-05-21T01:00:14;15.30;1.00
816;DHT22;25928;51.062;13.752;2023-05-21T01:02:40;15.40;1.00
816;DHT22;25928;51.062;13.752;2023-05-21T01:05:06;15.30;1.00
816;DHT22;25928;51.062;13.752;2023-05-21T01:07:37;15.40;1.00
816;DHT22;25928;51.062;13.752;2023-05-21T01:10:07;15.50;1.00
816;DHT22;25928;51.062;13.752;2023-05-21T01:12:36;15.60;1.00
816;DHT22;25928;51.062;13.752;2023-05-21T01:15:03;15.50;1.00
816;DHT22;25928;51.062;13.752;2023-05-21T01:17:29;15.40;1.00
816;DHT22;25928;51.062;13.752;2023-05-21T01:19:59;15.40;1.00
816;DHT22;25928;51.062;13.752;2023-05-21T01:22:30;15.30;1.00
816;DHT22;25928;51.062;13.752;2023-05-21T01:24:56;15.30;1.00
816;DHT22;25928;51.062;13.752;2023-05-21T01:27:22;16.20;1.00
816;DHT22;25928;51.062;13.752;2023-05-21T01:29:48;15.30;1.00
816;DHT22;25928;51.062;13.752;2023-05-21T01:32:28;15.40;1.00
816;DHT22;25928;51.062;13.752;2023-05-21T01:34:59;15.30;1.00
816;DHT22;25928;51.062;13.752;2023-05-21T01:37:33;15.40;1.00
816;DHT22;25928;51.062;13.752;2023-05-21T01:40:09;15.40;1.00
816;DHT22;25928;51.062;13.752;2023-05-21T01:42:36;15.50;1.00
816;DHT22;25928;51.062;13.752;2023-05-21T01:45:03;15.50;1.00
816;DHT22;25928;51.062;13.752;2023-05-21T01:47:31;15.40;1.00
816;DHT22;25928;51.062;13.752;2023-05-21T01:49:58;15.50;1.00
816;DHT22;25928;51.062;13.752;2023-05-21T01:52:24;15.40;1.00
816;DHT22;25928;51.062;13.752;2023-05-21T01:54:50;15.30;1.00
816;DHT22;25928;51.062;13.752;2023-05-21T01:57:16;15.30;1.00
816;DHT22;25928;51.062;13.752;2023-05-21T01:59:42;15.20;1.00
816;DHT22;25928;51.062;13.752;2023-05-21T02:02:08;15.10;1.00
816;DHT22;25928;51.062;13.752;2023-05-21T02:04:34;15.10;1.00
816;DHT22;25928;51.062;13.752;2023-05-21T02:07:00;15.00;1.00
816;DHT22;25928;51.062;13.752;2023-05-21T02:09:26;15.00;1.00
816;DHT22;25928;51.062;13.752;2023-05-21T02:11:52;15.00;1.00
816;DHT22;25928;51.062;13.752;2023-05-21T02:14:17;15.00;1.00
816;DHT22;25928;51.062;13.752;2023-05-21T02:16:44;15.00;1.00
816;DHT22;25928;51.062;13.752;2023-05-21T02:19:10;15.00;1.00
816;DHT22;25928;51.062;13.752;2023-05-21T02:21:36;15.00;1.00
816;DHT22;25928;51.062;13.752;2023-05-21T02:24:01;14.90;1.00
816;DHT22;25928;51.062;13.752;2023-05-21T02:26:27;14.90;1.00
816;DHT22;25928;51.062;13.752;2023-05-21T02:28:53;14.80;1.00
816;DHT22;25928;51.062;13.752;2023-05-21T02:31:19;14.80;1.00
816;DHT22;25928;51.062;13.752;2023-05-21T02:33:45;14.80;1.00
816;DHT22;25928;51.062;13.752;2023-05-21T02:36:10;14.80;1.00
816;DHT22;25928;51.062;13.752;2023-05-21T02:38:38;14.90;1.00
816;DHT22;25928;51.062;13.752;2023-05-21T02:41:05;14.90;1.00
816;DHT22;25928;51.062;13.752;2023-05-21T02:43:31;14.90;1.00
816;DHT22;25928;51.062;13.752;2023-05-21T02:45:56;14.80;1.00
816;DHT22;25928;51.062;13.752;2023-05-21T02:48:22;14.80;1.00
816;DHT22;25928;51.062;13.752;2023-05-21T02:50:48;14.80;1.00
816;DHT22;25928;51.062;13.752;2023-05-21T02:53:13;14.80;1.00
816;DHT22;25928;51.062;13.752;2023-05-21T02:55:39;14.70;1.00
816;DHT22;25928;51.062;13.752;2023-05-21T02:58:06;14.60;1.00
816;DHT22;25928;51.062;13.752;2023-05-21T03:00:31;14.60;1.00
816;DHT22;25928;51.062;13.752;2023-05-21T03:02:57;14.60;1.00
816;DHT22;25928;51.062;13.752;2023-05-21T03:05:23;14.60;1.00
816;DHT22;25928;51.062;13.752;2023-05-21T03:07:49;14.50;1.00
816;DHT22;25928;51.062;13.752;2023-05-21T03:10:15;14.50;1.00
816;DHT22;25928;51.062;13.752;2023-05-21T03:12:41;14.50;1.00
816;DHT22;25928;51.062;13.752;2023-05-21T03:15:07;14.40;1.00
816;DHT22;25928;51.062;13.752;2023-05-21T03:17:32;14.40;1.00
816;DHT22;25928;51.062;13.752;2023-05-21T03:19:58;14.50;1.00
816;DHT22;25928;51.062;13.752;2023-05-21T03:22:24;14.60;1.00
816;DHT22;25928;51.062;13.752;2023-05-21T03:24:49;14.60;1.00
816;DHT22;25928;51.062;13.752;2023-05-21T03:27:15;14.60;1.00
816;DHT22;25928;51.062;13.752;2023-05-21T03:29:41;14.60;1.00
816;DHT22;25928;51.062;13.752;2023-05-21T03:32:07;14.60;1.00
816;DHT22;25928;51.062;13.752;2023-05-21T03:34:33;14.60;1.00
816;DHT22;25928;51.062;13.752;2023-05-21T03:36:59;14.70;1.00
816;DHT22;25928;51.062;13.752;2023-05-21T03:39:24;14.70;1.00
816;DHT22;25928;51.062;13.752;2023-05-21T03:41:50;14.70;1.00
816;DHT22;25928;51.062;13.752;2023-05-21T03:44:16;14.70;1.00
816;DHT22;25928;51.062;13.752;2023-05-21T03:46:41;14.70;1.00
816;DHT22;25928;51.062;13.752;2023-05-21T03:49:09;14.80;1.00
816;DHT22;25928;51.062;13.752;2023-05-21T03:51:35;14.80;1.00
816;DHT22;25928;51.062;13.752;2023-05-21T03:54:02;14.90;1.00
816;DHT22;25928;51.062;13.752;2023-05-21T03:56:28;15.00;1.00
816;DHT22;25928;51.062;13.752;2023-05-21T03:58:54;15.00;1.00
816;DHT22;25928;51.062;13.752;2023-05-21T04:01:19;15.10;1.00
816;DHT22;25928;51.062;13.752;2023-05-21T04:03:45;15.10;1.00
816;DHT22;25928;51.062;13.752;2023-05-21T04:06:11;15.10;1.00
816;DHT22;25928;51.062;13.752;2023-05-21T04:08:36;15.10;1.00
816;DHT22;25928;51.062;13.752;2023-05-21T04:11:02;15.20;1.00
816;DHT22;25928;51.062;13.752;2023-05-21T04:13:28;15.30;1.00
816;DHT22;25928;51.062;13.752;2023-05-21T04:15:53;15.30;1.00
816;DHT22;25928;51.062;13.752;2023-05-21T04:18:20;15.30;1.00
816;DHT22;25928;51.062;13.752;2023-05-21T04:20:48;15.40;1.00
816;DHT22;25928;51.062;13.752;2023-05-21T04:23:14;15.50;1.00
816;DHT22;25928;51.062;13.752;2023-05-21T04:25:40;15.60;1.00
816;DHT22;25928;51.062;13.752;2023-05-21T04:28:05;15.60;1.00
816;DHT22;25928;51.062;13.752;2023-05-21T04:30:31;15.70;1.00
816;DHT22;25928;51.062;13.752;2023-05-21T04:33:00;15.80;1.00
816;DHT22;25928;51.062;13.752;2023-05-21T04:35:26;15.80;1.00
816;DHT22;25928;51.062;13.752;2023-05-21T04:37:51;15.90;1.00
816;DHT22;25928;51.062;13.752;2023-05-21T04:40:19;16.00;1.00
816;DHT22;25928;51.062;13.752;2023-05-21T04:42:50;16.10;1.00
816;DHT22;25928;51.062;13.752;2023-05-21T04:45:16;16.20;1.00
816;DHT22;25928;51.062;13.752;2023-05-21T04:47:45;16.30;1.00
816;DHT22;25928;51.062;13.752;2023-05-21T04:50:12;16.30;1.00
816;DHT22;25928;51.062;13.752;2023-05-21T04:52:38;16.40;1.00
816;DHT22;25928;51.062;13.752;2023-05-21T04:55:05;16.50;1.00
816;DHT22;25928;51.062;13.752;2023-05-21T04:57:31;16.60;1.00
816;DHT22;25928;51.062;13.752;2023-05-21T04:59:56;16.90;1.00
816;DHT22;25928;51.062;13.752;2023-05-21T05:02:22;17.10;1.00
816;DHT22;25928;51.062;13.752;2023-05-21T05:04:48;17.20;1.00
816;DHT22;25928;51.062;13.752;2023-05-21T05:07:13;17.40;1.00
816;DHT22;25928;51.062;13.752;2023-05-21T05:09:39;17.50;1.00
816;DHT22;25928;51.062;13.752;2023-05-21T05:12:05;17.70;1.00
816;DHT22;25928;51.062;13.752;2023-05-21T05:14:31;17.80;1.00
816;DHT22;25928;51.062;13.752;2023-05-21T05:16:57;17.90;1.00
816;DHT22;25928;51.062;13.752;2023-05-21T05:19:26;18.10;1.00
816;DHT22;25928;51.062;13.752;2023-05-21T05:21:52;18.30;1.00
816;DHT22;25928;51.062;13.752;2023-05-21T05:24:18;18.60;1.00
816;DHT22;25928;51.062;13.752;2023-05-21T05:26:44;18.90;1.00
816;DHT22;25928;51.062;13.752;2023-05-21T05:29:10;19.20;1.00
816;DHT22;25928;51.062;13.752;2023-05-21T05:31:35;19.40;1.00
816;DHT22;25928;51.062;13.752;2023-05-21T05:34:01;19.50;1.00
816;DHT22;25928;51.062;13.752;2023-05-21T05:36:27;19.70;1.00
816;DHT22;25928;51.062;13.752;2023-05-21T05:38:52;19.70;1.00
816;DHT22;25928;51.062;13.752;2023-05-21T05:41:18;19.70;1.00
816;DHT22;25928;51.062;13.752;2023-05-21T05:43:43;18.70;1.00
816;DHT22;25928;51.062;13.752;2023-05-21T05:46:09;19.80;1.00
816;DHT22;25928;51.062;13.752;2023-05-21T05:48:34;19.90;1.00
816;DHT22;25928;51.062;13.752;2023-05-21T05:51:00;20.10;1.00
816;DHT22;25928;51.062;13.752;2023-05-21T05:53:26;20.20;1.00
816;DHT22;25928;51.062;13.752;2023-05-21T05:55:51;20.40;1.00
816;DHT22;25928;51.062;13.752;2023-05-21T05:58:17;20.40;1.00
816;DHT22;25928;51.062;13.752;2023-05-21T06:00:42;20.60;1.00
816;DHT22;25928;51.062;13.752;2023-05-21T06:03:08;20.80;1.00
816;DHT22;25928;51.062;13.752;2023-05-21T06:05:34;20.90;1.00
816;DHT22;25928;51.062;13.752;2023-05-21T06:07:59;21.20;1.00
816;DHT22;25928;51.062;13.752;2023-05-21T06:10:25;21.50;1.00
816;DHT22;25928;51.062;13.752;2023-05-21T06:12:51;21.70;1.00
816;DHT22;25928;51.062;13.752;2023-05-21T06:15:17;22.00;1.00
816;DHT22;25928;51.062;13.752;2023-05-21T06:17:43;22.10;1.00
816;DHT22;25928;51.062;13.752;2023-05-21T06:20:09;22.20;1.00
816;DHT22;25928;51.062;13.752;2023-05-21T06:22:36;22.40;1.00
816;DHT22;25928;51.062;13.752;2023-05-21T06:25:02;22.50;99.90
816;DHT22;25928;51.062;13.752;2023-05-21T06:27:27;22.60;99.90
816;DHT22;25928;51.062;13.752;2023-05-21T06:29:53;22.70;99.90
816;DHT22;25928;51.062;13.752;2023-05-21T06:32:19;22.80;99.90
816;DHT22;25928;51.062;13.752;2023-05-21T06:34:45;22.90;99.90
816;DHT22;25928;51.062;13.752;2023-05-21T06:37:11;22.90;99.90
816;DHT22;25928;51.062;13.752;2023-05-21T06:39:37;22.90;99.90
816;DHT22;25928;51.062;13.752;2023-05-21T06:42:02;22.80;99.90
816;DHT22;25928;51.062;13.752;2023-05-21T06:44:28;22.80;99.90
816;DHT22;25928;51.062;13.752;2023-05-21T06:46:54;22.80;99.90
816;DHT22;25928;51.062;13.752;2023-05-21T06:49:19;22.80;99.90
816;DHT22;25928;51.062;13.752;2023-05-21T06:51:45;22.80;99.90
816;DHT22;25928;51.062;13.752;2023-05-21T06:54:11;22.80;99.90
816;DHT22;25928;51.062;13.752;2023-05-21T06:56:37;22.90;99.90
816;DHT22;25928;51.062;13.752;2023-05-21T06:59:03;23.00;99.90
816;DHT22;25928;51.062;13.752;2023-05-21T07:01:28;23.20;99.90
816;DHT22;25928;51.062;13.752;2023-05-21T07:03:54;23.30;99.90
816;DHT22;25928;51.062;13.752;2023-05-21T07:06:20;23.40;99.90
816;DHT22;25928;51.062;13.752;2023-05-21T07:08:46;23.40;99.90
816;DHT22;25928;51.062;13.752;2023-05-21T07:11:14;23.30;99.90
816;DHT22;25928;51.062;13.752;2023-05-21T07:13:39;23.30;99.90
816;DHT22;25928;51.062;13.752;2023-05-21T07:16:05;23.20;99.90
816;DHT22;25928;51.062;13.752;2023-05-21T07:18:31;23.30;99.90
816;DHT22;25928;51.062;13.752;2023-05-21T07:20:57;23.40;99.90
816;DHT22;25928;51.062;13.752;2023-05-21T07:23:22;23.50;99.90
816;DHT22;25928;51.062;13.752;2023-05-21T07:25:48;23.50;99.90
816;DHT22;25928;51.062;13.752;2023-05-21T07:28:14;23.60;99.90
816;DHT22;25928;51.062;13.752;2023-05-21T07:30:40;23.80;99.90
816;DHT22;25928;51.062;13.752;2023-05-21T07:33:05;23.80;99.90
816;DHT22;25928;51.062;13.752;2023-05-21T07:35:31;23.80;99.90
816;DHT22;25928;51.062;13.752;2023-05-21T07:37:56;23.80;99.90
816;DHT22;25928;51.062;13.752;2023-05-21T07:40:22;24.00;99.90
816;DHT22;25928;51.062;13.752;2023-05-21T07:42:47;24.20;99.90
816;DHT22;25928;51.062;13.752;2023-05-21T07:45:13;24.30;99.90
816;DHT22;25928;51.062;13.752;2023-05-21T07:47:39;24.30;99.90
816;DHT22;25928;51.062;13.752;2023-05-21T07:50:05;24.50;99.90
816;DHT22;25928;51.062;13.752;2023-05-21T07:52:31;24.40;99.90
816;DHT22;25928;51.062;13.752;2023-05-21T07:54:56;24.50;99.90
816;DHT22;25928;51.062;13.752;2023-05-21T07:57:22;24.60;99.90
816;DHT22;25928;51.062;13.752;2023-05-21T07:59:48;24.90;99.90
816;DHT22;25928;51.062;13.752;2023-05-21T08:02:13;25.00;99.90
816;DHT22;25928;51.062;13.752;2023-05-21T08:04:39;25.20;99.90
816;DHT22;25928;51.062;13.752;2023-05-21T08:07:05;25.50;99.90
816;DHT22;25928;51.062;13.752;2023-05-21T08:09:30;25.60;99.90
816;DHT22;25928;51.062;13.752;2023-05-21T08:11:56;25.50;99.90
816;DHT22;25928;51.062;13.752;2023-05-21T08:14:22;25.30;99.90
816;DHT22;25928;51.062;13.752;2023-05-21T08:16:47;25.00;99.90
816;DHT22;25928;51.062;13.752;2023-05-21T08:19:13;24.90;99.90
816;DHT22;25928;51.062;13.752;2023-05-21T08:21:39;24.90;99.90
816;DHT22;25928;51.062;13.752;2023-05-21T08:24:06;24.90;99.90
816;DHT22;25928;51.062;13.752;2023-05-21T08:26:31;25.00;99.90
816;DHT22;25928;51.062;13.752;2023-05-21T08:28:57;25.00;99.90
816;DHT22;25928;51.062;13.752;2023-05-21T08:31:23;25.10;99.90
816;DHT22;25928;51.062;13.752;2023-05-21T08:33:50;25.20;99.90
816;DHT22;25928;51.062;13.752;2023-05-21T08:36:16;25.30;99.90
816;DHT22;25928;51.062;13.752;2023-05-21T08:38:42;25.40;99.90
816;DHT22;25928;51.062;13.752;2023-05-21T08:41:09;25.50;99.90
816;DHT22;25928;51.062;13.752;2023-05-21T08:43:36;25.60;99.90
816;DHT22;25928;51.062;13.752;2023-05-21T08:46:06;25.90;99.90
816;DHT22;25928;51.062;13.752;2023-05-21T08:48:35;26.30;99.90
816;DHT22;25928;51.062;13.752;2023-05-21T08:51:01;26.50;99.90
816;DHT22;25928;51.062;13.752;2023-05-21T08:53:26;26.40;99.90
816;DHT22;25928;51.062;13.752;2023-05-21T08:55:53;26.40;99.90
816;DHT22;25928;51.062;13.752;2023-05-21T08:58:20;26.20;99.90
816;DHT22;25928;51.062;13.752;2023-05-21T09:00:46;26.10;99.90
816;DHT22;25928;51.062;13.752;2023-05-21T09:03:12;26.00;99.90
816;DHT22;25928;51.062;13.752;2023-05-21T09:05:43;26.00;99.90
816;DHT22;25928;51.062;13.752;2023-05-21T09:08:18;26.00;99.90
816;DHT22;25928;51.062;13.752;2023-05-21T09:10:51;25.90;99.90
816;DHT22;25928;51.062;13.752;2023-05-21T09:13:17;25.90;99.90
816;DHT22;25928;51.062;13.752;2023-05-21T09:15:44;26.00;99.90
816;DHT22;25928;51.062;13.752;2023-05-21T09:18:10;26.00;99.90
816;DHT22;25928;51.062;13.752;2023-05-21T09:20:36;26.00;99.90
816;DHT22;25928;51.062;13.752;2023-05-21T09:23:04;26.20;99.90
816;DHT22;25928;51.062;13.752;2023-05-21T09:25:31;26.30;99.90
816;DHT22;25928;51.062;13.752;2023-05-21T09:27:58;26.60;99.90
816;DHT22;25928;51.062;13.752;2023-05-21T09:30:24;26.80;99.90
816;DHT22;25928;51.062;13.752;2023-05-21T09:32:56;26.90;99.90
816;DHT22;25928;51.062;13.752;2023-05-21T09:35:22;26.90;99.90
816;DHT22;25928;51.062;13.752;2023-05-21T09:37:52;26.90;99.90
816;DHT22;25928;51.062;13.752;2023-05-21T09:40:22;26.90;99.90
816;DHT22;25928;51.062;13.752;2023-05-21T09:42:50;27.10;99.90
816;DHT22;25928;51.062;13.752;2023-05-21T09:45:19;27.00;99.90
816;DHT22;25928;51.062;13.752;2023-05-21T09:47:46;27.20;99.90
816;DHT22;25928;51.062;13.752;2023-05-21T09:50:16;27.20;99.90
816;DHT22;25928;51.062;13.752;2023-05-21T09:52:42;27.10;99.90
816;DHT22;25928;51.062;13.752;2023-05-21T09:55:12;27.00;99.90
816;DHT22;25928;51.062;13.752;2023-05-21T09:57:45;27.10;99.90
816;DHT22;25928;51.062;13.752;2023-05-21T10:02:45;27.00;99.90
816;DHT22;25928;51.062;13.752;2023-05-21T10:05:13;27.00;99.90
816;DHT22;25928;51.062;13.752;2023-05-21T10:07:46;27.00;99.90
816;DHT22;25928;51.062;13.752;2023-05-21T10:10:13;27.00;99.90
816;DHT22;25928;51.062;13.752;2023-05-21T10:12:43;27.10;99.90
816;DHT22;25928;51.062;13.752;2023-05-21T10:15:15;27.20;99.90
816;DHT22;25928;51.062;13.752;2023-05-21T10:17:42;27.30;99.90
816;DHT22;25928;51.062;13.752;2023-05-21T10:20:10;27.40;99.90
816;DHT22;25928;51.062;13.752;2023-05-21T10:22:36;27.20;99.90
816;DHT22;25928;51.062;13.752;2023-05-21T10:25:02;27.00;99.90
816;DHT22;25928;51.062;13.752;2023-05-21T10:27:30;27.20;99.90
816;DHT22;25928;51.062;13.752;2023-05-21T10:29:56;27.40;99.90
816;DHT22;25928;51.062;13.752;2023-05-21T10:32:26;27.40;99.90
816;DHT22;25928;51.062;13.752;2023-05-21T10:34:56;27.70;99.90
816;DHT22;25928;51.062;13.752;2023-05-21T10:37:25;27.90;99.90
816;DHT22;25928;51.062;13.752;2023-05-21T10:39:52;27.90;99.90
816;DHT22;25928;51.062;13.752;2023-05-21T10:42:20;28.10;99.90
816;DHT22;25928;51.062;13.752;2023-05-21T10:47:25;28.00;99.90
816;DHT22;25928;51.062;13.752;2023-05-21T10:53:00;26.60;99.90
816;DHT22;25928;51.062;13.752;2023-05-21T11:01:16;26.60;99.90
816;DHT22;25928;51.062;13.752;2023-05-21T11:03:45;27.00;99.90
816;DHT22;25928;51.062;13.752;2023-05-21T11:06:24;27.10;99.90
816;DHT22;25928;51.062;13.752;2023-05-21T11:08:51;27.10;99.90
816;DHT22;25928;51.062;13.752;2023-05-21T11:11:50;27.30;99.90
816;DHT22;25928;51.062;13.752;2023-05-21T11:14:29;27.60;99.90
816;DHT22;25928;51.062;13.752;2023-05-21T11:17:16;28.00;99.90
816;DHT22;25928;51.062;13.752;2023-05-21T11:20:03;28.40;99.90
816;DHT22;25928;51.062;13.752;2023-05-21T11:22:34;28.60;99.90
816;DHT22;25928;51.062;13.752;2023-05-21T11:25:01;28.80;99.90
816;DHT22;25928;51.062;13.752;2023-05-21T11:27:38;28.80;99.90
816;DHT22;25928;51.062;13.752;2023-05-21T11:30:07;28.50;99.90
816;DHT22;25928;51.062;13.752;2023-05-21T11:35:56;28.40;99.90
816;DHT22;25928;51.062;13.752;2023-05-21T11:38:21;28.70;99.90
816;DHT22;25928;51.062;13.752;2023-05-21T11:40:53;29.30;99.90
816;DHT22;25928;51.062;13.752;2023-05-21T11:43:19;29.90;99.90
816;DHT22;25928;51.062;13.752;2023-05-21T11:45:46;30.20;99.90
816;DHT22;25928;51.062;13.752;2023-05-21T11:48:14;30.00;99.90
816;DHT22;25928;51.062;13.752;2023-05-21T11:50:41;29.50;99.90
816;DHT22;25928;51.062;13.752;2023-05-21T11:53:07;28.90;99.90
816;DHT22;25928;51.062;13.752;2023-05-21T11:55:37;28.30;99.90
816;DHT22;25928;51.062;13.752;2023-05-21T11:58:03;28.20;99.90
816;DHT22;25928;51.062;13.752;2023-05-21T12:00:30;28.10;99.90
816;DHT22;25928;51.062;13.752;2023-05-21T12:02:56;28.00;99.90
816;DHT22;25928;51.062;13.752;2023-05-21T12:05:23;28.00;99.90
816;DHT22;25928;51.062;13.752;2023-05-21T12:07:48;28.00;99.90
816;DHT22;25928;51.062;13.752;2023-05-21T12:10:15;27.80;99.90
816;DHT22;25928;51.062;13.752;2023-05-21T12:12:41;27.90;99.90
816;DHT22;25928;51.062;13.752;2023-05-21T12:15:07;27.90;99.90
816;DHT22;25928;51.062;13.752;2023-05-21T12:17:34;27.70;99.90
816;DHT22;25928;51.062;13.752;2023-05-21T12:20:00;27.40;99.90
816;DHT22;25928;51.062;13.752;2023-05-21T12:22:26;27.20;99.90
816;DHT22;25928;51.062;13.752;2023-05-21T12:24:55;27.30;99.90
816;DHT22;25928;51.062;13.752;2023-05-21T12:27:22;27.50;99.90
816;DHT22;25928;51.062;13.752;2023-05-21T12:29:50;27.50;99.90
816;DHT22;25928;51.062;13.752;2023-05-21T12:32:19;27.60;99.90
816;DHT22;25928;51.062;13.752;2023-05-21T12:34:47;27.60;99.90
816;DHT22;25928;51.062;13.752;2023-05-21T12:37:27;27.50;99.90
816;DHT22;25928;51.062;13.752;2023-05-21T12:40:01;27.80;99.90
816;DHT22;25928;51.062;13.752;2023-05-21T12:42:31;28.20;99.90
816;DHT22;25928;51.062;13.752;2023-05-21T12:45:01;28.60;99.90
816;DHT22;25928;51.062;13.752;2023-05-21T12:47:30;28.70;99.90
816;DHT22;25928;51.062;13.752;2023-05-21T12:49:57;28.90;99.90
816;DHT22;25928;51.062;13.752;2023-05-21T12:52:24;28.50;99.90
816;DHT22;25928;51.062;13.752;2023-05-21T12:54:52;28.30;99.90
816;DHT22;25928;51.062;13.752;2023-05-21T12:57:20;28.50;99.90
816;DHT22;25928;51.062;13.752;2023-05-21T12:59:50;28.60;99.90
816;DHT22;25928;51.062;13.752;2023-05-21T13:02:21;28.50;99.90
816;DHT22;25928;51.062;13.752;2023-05-21T13:04:47;28.60;99.90
816;DHT22;25928;51.062;13.752;2023-05-21T13:07:14;28.60;99.90
816;DHT22;25928;51.062;13.752;2023-05-21T13:09:41;28.60;99.90
816;DHT22;25928;51.062;13.752;2023-05-21T13:12:06;28.40;99.90
816;DHT22;25928;51.062;13.752;2023-05-21T13:14:32;28.60;99.90
816;DHT22;25928;51.062;13.752;2023-05-21T13:16:58;28.90;99.90
816;DHT22;25928;51.062;13.752;2023-05-21T13:19:24;29.20;99.90
816;DHT22;25928;51.062;13.752;2023-05-21T13:21:49;29.40;99.90
816;DHT22;25928;51.062;13.752;2023-05-21T13:24:15;29.40;99.90
816;DHT22;25928;51.062;13.752;2023-05-21T13:26:41;29.60;99.90
816;DHT22;25928;51.062;13.752;2023-05-21T13:29:06;29.20;99.90
816;DHT22;25928;51.062;13.752;2023-05-21T13:31:32;29.10;99.90
816;DHT22;25928;51.062;13.752;2023-05-21T13:33:57;29.00;99.90
816;DHT22;25928;51.062;13.752;2023-05-21T13:36:23;28.60;99.90
816;DHT22;25928;51.062;13.752;2023-05-21T13:38:49;28.40;99.90
816;DHT22;25928;51.062;13.752;2023-05-21T13:41:14;28.40;99.90
816;DHT22;25928;51.062;13.752;2023-05-21T13:43:42;28.20;99.90
816;DHT22;25928;51.062;13.752;2023-05-21T13:46:08;28.10;99.90
816;DHT22;25928;51.062;13.752;2023-05-21T13:48:34;28.10;99.90
816;DHT22;25928;51.062;13.752;2023-05-21T13:51:00;28.00;99.90
816;DHT22;25928;51.062;13.752;2023-05-21T13:53:25;27.80;99.90
816;DHT22;25928;51.062;13.752;2023-05-21T13:55:51;28.00;99.90
816;DHT22;25928;51.062;13.752;2023-05-21T13:58:17;27.80;99.90
816;DHT22;25928;51.062;13.752;2023-05-21T14:00:42;27.90;99.90
816;DHT22;25928;51.062;13.752;2023-05-21T14:03:08;27.90;99.90
816;DHT22;25928;51.062;13.752;2023-05-21T14:05:35;27.60;99.90
816;DHT22;25928;51.062;13.752;2023-05-21T14:08:01;27.80;99.90
816;DHT22;25928;51.062;13.752;2023-05-21T14:10:26;28.00;99.90
816;DHT22;25928;51.062;13.752;2023-05-21T14:12:52;28.10;99.90
816;DHT22;25928;51.062;13.752;2023-05-21T14:15:18;28.20;99.90
816;DHT22;25928;51.062;13.752;2023-05-21T14:17:43;29.00;99.90
816;DHT22;25928;51.062;13.752;2023-05-21T14:20:09;30.10;99.90
816;DHT22;25928;51.062;13.752;2023-05-21T14:22:35;31.60;99.90
816;DHT22;25928;51.062;13.752;2023-05-21T14:25:01;32.20;99.90
816;DHT22;25928;51.062;13.752;2023-05-21T14:27:27;32.90;99.90
816;DHT22;25928;51.062;13.752;2023-05-21T14:29:53;32.50;99.90
816;DHT22;25928;51.062;13.752;2023-05-21T14:32:18;31.80;99.90
816;DHT22;25928;51.062;13.752;2023-05-21T14:34:44;32.20;99.90
816;DHT22;25928;51.062;13.752;2023-05-21T14:37:09;32.20;99.90
816;DHT22;25928;51.062;13.752;2023-05-21T14:39:35;32.20;99.90
816;DHT22;25928;51.062;13.752;2023-05-21T14:42:04;32.30;99.90
816;DHT22;25928;51.062;13.752;2023-05-21T14:44:30;31.40;99.90
816;DHT22;25928;51.062;13.752;2023-05-21T14:46:56;30.30;99.90
816;DHT22;25928;51.062;13.752;2023-05-21T14:49:22;29.70;99.90
816;DHT22;25928;51.062;13.752;2023-05-21T14:51:47;29.60;99.90
816;DHT22;25928;51.062;13.752;2023-05-21T14:54:13;29.90;99.90
816;DHT22;25928;51.062;13.752;2023-05-21T14:56:38;30.30;99.90
816;DHT22;25928;51.062;13.752;2023-05-21T14:59:05;29.90;99.90
816;DHT22;25928;51.062;13.752;2023-05-21T15:01:31;29.10;99.90
816;DHT22;25928;51.062;13.752;2023-05-21T15:03:56;28.60;99.90
816;DHT22;25928;51.062;13.752;2023-05-21T15:06:22;28.70;99.90
816;DHT22;25928;51.062;13.752;2023-05-21T15:08:48;29.20;99.90
816;DHT22;25928;51.062;13.752;2023-05-21T15:11:14;29.60;99.90
816;DHT22;25928;51.062;13.752;2023-05-21T15:13:40;30.30;99.90
816;DHT22;25928;51.062;13.752;2023-05-21T15:16:05;30.90;99.90
816;DHT22;25928;51.062;13.752;2023-05-21T15:18:31;31.00;99.90
816;DHT22;25928;51.062;13.752;2023-05-21T15:20:57;31.50;99.90
816;DHT22;25928;51.062;13.752;2023-05-21T15:23:23;31.70;99.90
816;DHT22;25928;51.062;13.752;2023-05-21T15:25:49;31.30;99.90
816;DHT22;25928;51.062;13.752;2023-05-21T15:28:14;31.30;99.90
816;DHT22;25928;51.062;13.752;2023-05-21T15:30:40;31.40;99.90
816;DHT22;25928;51.062;13.752;2023-05-21T15:33:06;31.50;99.90
816;DHT22;25928;51.062;13.752;2023-05-21T15:35:31;31.80;99.90
816;DHT22;25928;51.062;13.752;2023-05-21T15:37:57;31.40;99.90
816;DHT22;25928;51.062;13.752;2023-05-21T15:40:23;31.00;99.90
816;DHT22;25928;51.062;13.752;2023-05-21T15:42:48;30.50;99.90
816;DHT22;25928;51.062;13.752;2023-05-21T15:45:14;30.10;99.90
816;DHT22;25928;51.062;13.752;2023-05-21T15:47:39;30.20;99.90
816;DHT22;25928;51.062;13.752;2023-05-21T15:50:08;30.10;99.90
816;DHT22;25928;51.062;13.752;2023-05-21T15:52:33;29.70;99.90
816;DHT22;25928;51.062;13.752;2023-05-21T15:54:59;29.20;99.90
816;DHT22;25928;51.062;13.752;2023-05-21T15:57:25;29.20;99.90
816;DHT22;25928;51.062;13.752;2023-05-21T15:59:50;29.40;99.90
816;DHT22;25928;51.062;13.752;2023-05-21T16:02:17;29.70;99.90
816;DHT22;25928;51.062;13.752;2023-05-21T16:04:42;30.10;99.90
816;DHT22;25928;51.062;13.752;2023-05-21T16:07:08;30.30;99.90